sensor_id;sensor_type;location;lat;lon;timestamp;P1;durP1;ratioP1;P2;durP2;ratioP2
18162;SDS011;9206;50.994;4.538;2023-12-22T00:02:06;19.10;;;4.10;;
18162;SDS011;9206;50.994;4.538;2023-12-22T00:04:55;13.40;;;3.77;;
18162;SDS011;9206;50.994;4.538;2023-12-22T00:10:33;20.87;;;4.37;;
18162;SDS011;9206;50.994;4.538;2023-12-22T00:13:23;17.73;;;4.07;;
18162;SDS011;9206;50.994;4.538;2023-12-22T00:16:16;12.00;;;3.33;;
18162;SDS011;9206;50.994;4.538;2023-12-22T00:19:12;19.57;;;4.40;;
18162;SDS011;9206;50.994;4.538;2023-12-22T00:22:02;16.57;;;3.87;;
18162;SDS011;9206;50.994;4.538;2023-12-22T00:24:52;13.70;;;4.07;;
18162;SDS011;9206;50.994;4.538;2023-12-22T00:27:43;8.00;;;2.87;;
18162;SDS011;9206;50.994;4.538;2023-12-22T00:30:31;9.13;;;3.03;;
18162;SDS011;9206;50.994;4.538;2023-12-22T00:33:24;8.13;;;3.80;;
18162;SDS011;9206;50.994;4.538;2023-12-22T00:36:18;11.23;;;3.77;;
18162;SDS011;9206;50.994;4.538;2023-12-22T00:39:14;10.27;;;3.37;;
18162;SDS011;9206;50.994;4.538;2023-12-22T00:42:07;12.33;;;3.53;;
18162;SDS011;9206;50.994;4.538;2023-12-22T00:47:58;13.90;;;2.87;;
18162;SDS011;9206;50.994;4.538;2023-12-22T00:50:48;10.77;;;2.80;;
18162;SDS011;9206;50.994;4.538;2023-12-22T00:53:47;12.23;;;3.63;;
18162;SDS011;9206;50.994;4.538;2023-12-22T00:59:46;13.50;;;3.30;;
18162;SDS011;9206;50.994;4.538;2023-12-22T01:02:40;13.97;;;3.73;;
18162;SDS011;9206;50.994;4.538;2023-12-22T01:05:28;14.37;;;3.60;;
18162;SDS011;9206;50.994;4.538;2023-12-22T01:08:25;16.13;;;3.53;;
18162;SDS011;9206;50.994;4.538;2023-12-22T01:11:25;15.00;;;3.70;;
18162;SDS011;9206;50.994;4.538;2023-12-22T01:14:13;21.80;;;4.20;;
18162;SDS011;9206;50.994;4.538;2023-12-22T01:17:04;15.07;;;3.43;;
18162;SDS011;9206;50.994;4.538;2023-12-22T01:23:23;24.77;;;3.93;;
18162;SDS011;9206;50.994;4.538;2023-12-22T01:26:13;19.80;;;4.37;;
18162;SDS011;9206;50.994;4.538;2023-12-22T01:29:02;18.33;;;3.73;;
18162;SDS011;9206;50.994;4.538;2023-12-22T01:31:51;14.17;;;4.20;;
18162;SDS011;9206;50.994;4.538;2023-12-22T01:35:05;15.63;;;3.80;;
18162;SDS011;9206;50.994;4.538;2023-12-22T01:38:09;9.57;;;3.17;;
18162;SDS011;9206;50.994;4.538;2023-12-22T01:41:00;11.90;;;3.67;;
18162;SDS011;9206;50.994;4.538;2023-12-22T01:46:38;17.73;;;3.87;;
18162;SDS011;9206;50.994;4.538;2023-12-22T01:49:30;11.33;;;4.07;;
18162;SDS011;9206;50.994;4.538;2023-12-22T01:52:21;13.37;;;3.63;;
18162;SDS011;9206;50.994;4.538;2023-12-22T01:55:09;14.57;;;3.47;;
18162;SDS011;9206;50.994;4.538;2023-12-22T01:58:00;11.27;;;3.70;;
18162;SDS011;9206;50.994;4.538;2023-12-22T02:00:48;11.77;;;3.53;;
18162;SDS011;9206;50.994;4.538;2023-12-22T02:03:36;17.87;;;4.40;;
18162;SDS011;9206;50.994;4.538;2023-12-22T02:06:25;12.50;;;3.97;;
18162;SDS011;9206;50.994;4.538;2023-12-22T02:09:26;15.53;;;3.60;;
18162;SDS011;9206;50.994;4.538;2023-12-22T02:12:36;10.57;;;3.57;;
18162;SDS011;9206;50.994;4.538;2023-12-22T02:15:33;12.53;;;3.70;;
18162;SDS011;9206;50.994;4.538;2023-12-22T02:21:19;17.10;;;3.73;;
18162;SDS011;9206;50.994;4.538;2023-12-22T02:24:19;16.50;;;3.43;;
18162;SDS011;9206;50.994;4.538;2023-12-22T02:27:17;14.53;;;3.53;;
18162;SDS011;9206;50.994;4.538;2023-12-22T02:30:22;19.13;;;4.47;;
18162;SDS011;9206;50.994;4.538;2023-12-22T02:33:22;13.87;;;3.90;;
18162;SDS011;9206;50.994;4.538;2023-12-22T02:36:15;13.43;;;4.00;;
18162;SDS011;9206;50.994;4.538;2023-12-22T02:39:05;12.57;;;3.37;;
18162;SDS011;9206;50.994;4.538;2023-12-22T02:42:06;11.97;;;2.87;;
18162;SDS011;9206;50.994;4.538;2023-12-22T02:45:02;12.57;;;3.10;;
18162;SDS011;9206;50.994;4.538;2023-12-22T02:47:51;12.53;;;3.20;;
18162;SDS011;9206;50.994;4.538;2023-12-22T02:50:40;10.53;;;2.70;;
18162;SDS011;9206;50.994;4.538;2023-12-22T02:53:31;4.30;;;2.40;;
18162;SDS011;9206;50.994;4.538;2023-12-22T02:56:35;13.43;;;3.23;;
18162;SDS011;9206;50.994;4.538;2023-12-22T02:59:27;9.77;;;3.03;;
18162;SDS011;9206;50.994;4.538;2023-12-22T03:02:14;7.93;;;2.57;;
18162;SDS011;9206;50.994;4.538;2023-12-22T03:05:09;9.17;;;2.97;;
18162;SDS011;9206;50.994;4.538;2023-12-22T03:08:00;9.03;;;2.73;;
18162;SDS011;9206;50.994;4.538;2023-12-22T03:10:49;7.83;;;3.00;;
18162;SDS011;9206;50.994;4.538;2023-12-22T03:13:38;3.80;;;2.20;;
18162;SDS011;9206;50.994;4.538;2023-12-22T03:16:30;14.80;;;2.90;;
18162;SDS011;9206;50.994;4.538;2023-12-22T03:19:25;13.97;;;2.77;;
18162;SDS011;9206;50.994;4.538;2023-12-22T03:22:29;10.97;;;2.70;;
18162;SDS011;9206;50.994;4.538;2023-12-22T03:25:17;12.10;;;3.17;;
18162;SDS011;9206;50.994;4.538;2023-12-22T03:28:08;8.20;;;2.80;;
18162;SDS011;9206;50.994;4.538;2023-12-22T03:30:55;21.60;;;4.07;;
18162;SDS011;9206;50.994;4.538;2023-12-22T03:33:44;12.37;;;3.60;;
18162;SDS011;9206;50.994;4.538;2023-12-22T03:36:39;10.87;;;3.37;;
18162;SDS011;9206;50.994;4.538;2023-12-22T03:39:39;14.90;;;3.63;;
18162;SDS011;9206;50.994;4.538;2023-12-22T03:42:26;19.53;;;4.83;;
18162;SDS011;9206;50.994;4.538;2023-12-22T03:45:16;15.80;;;3.90;;
18162;SDS011;9206;50.994;4.538;2023-12-22T03:48:04;18.33;;;4.33;;
18162;SDS011;9206;50.994;4.538;2023-12-22T03:53:45;18.67;;;3.80;;
18162;SDS011;9206;50.994;4.538;2023-12-22T03:56:38;15.70;;;4.17;;
18162;SDS011;9206;50.994;4.538;2023-12-22T03:59:31;13.30;;;4.00;;
18162;SDS011;9206;50.994;4.538;2023-12-22T04:02:19;22.83;;;4.50;;
18162;SDS011;9206;50.994;4.538;2023-12-22T04:05:11;14.83;;;4.10;;
18162;SDS011;9206;50.994;4.538;2023-12-22T04:08:03;21.77;;;4.07;;
18162;SDS011;9206;50.994;4.538;2023-12-22T04:11:01;18.03;;;4.00;;
18162;SDS011;9206;50.994;4.538;2023-12-22T04:16:47;12.43;;;4.10;;
18162;SDS011;9206;50.994;4.538;2023-12-22T04:22:28;16.70;;;3.80;;
18162;SDS011;9206;50.994;4.538;2023-12-22T04:25:18;14.37;;;3.63;;
18162;SDS011;9206;50.994;4.538;2023-12-22T04:28:08;13.07;;;4.17;;
18162;SDS011;9206;50.994;4.538;2023-12-22T04:33:45;24.47;;;4.53;;
18162;SDS011;9206;50.994;4.538;2023-12-22T04:39:33;28.23;;;5.00;;
18162;SDS011;9206;50.994;4.538;2023-12-22T04:42:38;19.43;;;5.43;;
18162;SDS011;9206;50.994;4.538;2023-12-22T04:48:18;22.73;;;5.53;;
18162;SDS011;9206;50.994;4.538;2023-12-22T04:51:09;22.33;;;5.23;;
18162;SDS011;9206;50.994;4.538;2023-12-22T04:53:59;31.07;;;5.57;;
18162;SDS011;9206;50.994;4.538;2023-12-22T04:56:57;20.53;;;5.13;;
18162;SDS011;9206;50.994;4.538;2023-12-22T04:59:49;29.03;;;5.73;;
18162;SDS011;9206;50.994;4.538;2023-12-22T05:02:42;34.33;;;5.77;;
18162;SDS011;9206;50.994;4.538;2023-12-22T05:05:32;26.43;;;5.00;;
18162;SDS011;9206;50.994;4.538;2023-12-22T05:11:14;22.60;;;5.97;;
18162;SDS011;9206;50.994;4.538;2023-12-22T05:14:01;24.23;;;5.27;;
18162;SDS011;9206;50.994;4.538;2023-12-22T05:16:50;25.03;;;5.30;;
18162;SDS011;9206;50.994;4.538;2023-12-22T05:22:31;30.10;;;5.33;;
18162;SDS011;9206;50.994;4.538;2023-12-22T05:25:21;23.43;;;5.83;;
18162;SDS011;9206;50.994;4.538;2023-12-22T05:28:10;22.77;;;5.30;;
18162;SDS011;9206;50.994;4.538;2023-12-22T05:31:00;23.53;;;5.07;;
18162;SDS011;9206;50.994;4.538;2023-12-22T05:33:52;25.20;;;5.33;;
18162;SDS011;9206;50.994;4.538;2023-12-22T05:36:39;28.43;;;5.80;;
18162;SDS011;9206;50.994;4.538;2023-12-22T05:39:29;30.87;;;6.37;;
18162;SDS011;9206;50.994;4.538;2023-12-22T05:42:21;27.47;;;5.53;;
18162;SDS011;9206;50.994;4.538;2023-12-22T05:45:15;23.60;;;6.13;;
18162;SDS011;9206;50.994;4.538;2023-12-22T05:48:08;27.17;;;5.73;;
18162;SDS011;9206;50.994;4.538;2023-12-22T05:50:59;19.57;;;5.03;;
